Le Touquet, France

12:44 PM CET on December 05, 2016 (GMT +0100)
Paris-Plage | | Change Station

Elev 46 ft 50.51 °N, 1.62 °E | Updated 14 minutes ago

Clear
Clear
41 °F
Feels Like 35 °F
N
10
Wind Variable Wind from ESE

Today
High -- | Low -- °F
--% Chance of Precip.
Yesterday
High -- | Low -- °F
Precip. -- in
Pressure 30.24 in
Visibility 5.6 miles
Clouds
Windchill 35 °F
Dew Point 34 °F
Humidity 76%
Rainfall 0.00 in
Snow Depth Not available.
8:38 AM 4:50 PM
Waxing Crescent, 31% visible
METAR LFAT 051130Z AUTO 12009KT 9000 NSC 05/01 Q1024 NOSIG
Pressure 30.24 in
Visibility 5.6 miles
Clouds
Windchill 35 °F
Dew Point 34 °F
Humidity 76%
Rainfall 0.00 in
Snow Depth Not available.
8:38 AM 4:50 PM
Waxing Crescent, 31% visible
METAR LFAT 051130Z AUTO 12009KT 9000 NSC 05/01 Q1024 NOSIG

10-Day Weather Forecast

×

Almanac

Astronomy

Dec. 05, 2016 Rise Set
Actual Time
Civil Twilight
Nautical Twilight
Astronomical Twilight
Moon
Length of Visible Light
Length of Day
Tomorrow will be .
, % of the Moon is Illuminated

Today's Extremes

Country Highs Country Lows

Community

WunderPhotos

Upload Photos

1,955,777 photos uploaded!

WunderBlog® & News

Nearby

Air Quality

  Air Quality AQ Index Pollutant
Not available.

Snow Depth

Station Depth Elevation

Earthquake Activity

City Distance Mag. Time & Date
Minimum magnitude displayed is 2.5.

Coastal Water Temperatures

Place Temperature

Stations

Nearby Weather Stations

Station Location Temp. Windchill Dew Point Humidity Wind Precip. Elev Updated Type